Time;durP1;ratioP1;P1;durP2;ratioP2;P2;SDS_P1;SDS_P2;PMS_P1;PMS_P2;Temp;Humidity;BMP_temperature;BMP_pressure;BME280_temperature;BME280_humidity;BME280_pressure;Samples;Min_cycle;Max_cycle;Signal;HPM_P1;HPM_P2
2023/01/18 00:00:26;;;;;;;22.60;10.43;;;;;;;;;;6110769;19;20026;-73
2023/01/18 00:02:31;;;;;;;18.55;8.90;;;;;;;;;;6111265;19;20007;-75
2023/01/18 00:04:36;;;;;;;20.23;9.50;;;;;;;;;;6109870;19;20042;-75
2023/01/18 00:06:44;;;;;;;19.98;10.38;;;;;;;;;;6110013;19;20660;-74
2023/01/18 00:08:49;;;;;;;17.90;9.07;;;;;;;;;;6109699;19;20417;-74
2023/01/18 00:10:54;;;;;;;16.00;8.85;;;;;;;;;;6110482;19;20018;-73
2023/01/18 00:12:59;;;;;;;22.20;9.05;;;;;;;;;;6111601;19;20042;-73
2023/01/18 00:15:04;;;;;;;29.35;9.02;;;;;;;;;;6109782;19;20007;-74
2023/01/18 00:17:11;;;;;;;16.13;9.23;;;;;;;;;;6108842;19;20758;-74
2023/01/18 00:19:20;;;;;;;18.55;9.38;;;;;;;;;;6111101;19;20010;-75
2023/01/18 00:21:26;;;;;;;17.88;9.00;;;;;;;;;;6108698;19;20011;-75
2023/01/18 00:23:34;;;;;;;23.75;8.43;;;;;;;;;;6110153;19;20011;-75
2023/01/18 00:25:38;;;;;;;22.20;8.43;;;;;;;;;;6110765;19;20010;-77
2023/01/18 00:27:48;;;;;;;11.95;7.28;;;;;;;;;;6109068;19;20018;-75
2023/01/18 00:29:54;;;;;;;17.20;8.15;;;;;;;;;;6110441;19;20451;-74
2023/01/18 00:32:01;;;;;;;14.23;8.23;;;;;;;;;;6110279;19;20023;-75
2023/01/18 00:34:06;;;;;;;20.58;7.47;;;;;;;;;;6109279;19;20023;-76
2023/01/18 00:36:11;;;;;;;16.30;8.60;;;;;;;;;;6107483;19;20051;-77
2023/01/18 00:38:16;;;;;;;16.42;8.27;;;;;;;;;;6109220;19;20046;-74
2023/01/18 00:40:27;;;;;;;17.58;8.65;;;;;;;;;;6108813;19;20093;-74
2023/01/18 00:44:50;;;;;;;15.23;8.32;;;;;;;;;;6108568;19;20063;-75
2023/01/18 00:46:54;;;;;;;14.35;7.03;;;;;;;;;;6112345;19;20058;-73
2023/01/18 00:48:59;;;;;;;14.88;7.47;;;;;;;;;;6107835;19;20023;-73
2023/01/18 00:51:04;;;;;;;17.20;7.43;;;;;;;;;;6107891;19;20343;-74
2023/01/18 00:53:09;;;;;;;12.73;6.85;;;;;;;;;;6106892;19;20025;-73
2023/01/18 00:55:14;;;;;;;15.07;7.97;;;;;;;;;;6110410;19;20151;-74
2023/01/18 00:57:22;;;;;;;14.35;6.50;;;;;;;;;;6109631;19;20011;-73
2023/01/18 00:59:27;;;;;;;16.20;7.55;;;;;;;;;;6105976;19;20014;-74
2023/01/18 01:01:32;;;;;;;13.73;7.47;;;;;;;;;;6107855;19;20007;-73
2023/01/18 01:08:16;;;;;;;17.20;6.65;;;;;;;;;;6079781;19;20066;-75
2023/01/18 01:10:21;;;;;;;14.40;6.90;;;;;;;;;;6108886;19;20031;-77
2023/01/18 01:26:14;;;;;;;13.85;7.10;;;;;;;;;;6105735;19;20018;-75
2023/01/18 01:28:22;;;;;;;19.17;7.18;;;;;;;;;;6104763;19;20051;-76
2023/01/18 01:30:27;;;;;;;15.75;7.82;;;;;;;;;;6108370;19;20002;-76
2023/01/18 01:32:33;;;;;;;15.27;6.93;;;;;;;;;;6107045;19;20109;-77
2023/01/18 01:34:38;;;;;;;11.88;6.43;;;;;;;;;;6106808;19;20015;-75
2023/01/18 01:36:44;;;;;;;13.98;6.13;;;;;;;;;;6109033;19;20019;-75
2023/01/18 01:38:49;;;;;;;15.00;6.95;;;;;;;;;;6106055;19;20011;-74
2023/01/18 01:41:04;;;;;;;15.13;6.38;;;;;;;;;;6107193;19;20003;-74
2023/01/18 01:43:13;;;;;;;11.50;7.10;;;;;;;;;;6108591;19;20451;-73
2023/01/18 01:45:21;;;;;;;18.95;7.13;;;;;;;;;;6107090;19;20007;-74
2023/01/18 01:47:44;;;;;;;9.82;6.30;;;;;;;;;;6106584;19;20003;-74
2023/01/18 01:49:53;;;;;;;16.55;7.18;;;;;;;;;;6108363;19;20007;-73
2023/01/18 01:52:01;;;;;;;14.50;7.60;;;;;;;;;;6105960;19;20517;-74
2023/01/18 01:54:10;;;;;;;13.05;6.22;;;;;;;;;;6106327;19;20376;-74
2023/01/18 01:56:15;;;;;;;12.65;6.88;;;;;;;;;;6106695;19;20512;-74
2023/01/18 01:58:24;;;;;;;14.50;7.65;;;;;;;;;;6107711;19;20066;-76
2023/01/18 02:00:32;;;;;;;14.70;6.40;;;;;;;;;;6104783;19;20011;-76
2023/01/18 02:02:37;;;;;;;11.13;6.63;;;;;;;;;;6105703;19;20401;-75
2023/01/18 02:04:52;;;;;;;9.45;5.60;;;;;;;;;;6106930;19;20077;-77
2023/01/18 02:06:57;;;;;;;12.45;6.57;;;;;;;;;;6107811;19;20019;-74
2023/01/18 02:09:03;;;;;;;20.58;7.55;;;;;;;;;;6105894;19;20018;-73
2023/01/18 02:11:08;;;;;;;15.68;6.43;;;;;;;;;;6103957;19;20036;-75
2023/01/18 02:13:17;;;;;;;10.95;5.38;;;;;;;;;;6104123;19;20018;-74
2023/01/18 02:15:23;;;;;;;10.65;5.43;;;;;;;;;;6108480;19;20003;-75
2023/01/18 02:17:40;;;;;;;13.05;6.40;;;;;;;;;;6105179;19;20031;-75
2023/01/18 02:20:18;;;;;;;17.67;6.60;;;;;;;;;;6106035;19;20034;-74
2023/01/18 02:22:37;;;;;;;16.83;6.47;;;;;;;;;;6100884;19;20028;-74
2023/01/18 02:25:04;;;;;;;12.68;6.63;;;;;;;;;;6106970;19;20014;-75
2023/01/18 02:27:17;;;;;;;18.27;6.55;;;;;;;;;;6109011;19;20022;-74
2023/01/18 02:29:39;;;;;;;16.50;5.97;;;;;;;;;;6106663;19;20014;-75
2023/01/18 02:31:57;;;;;;;10.88;5.75;;;;;;;;;;6107868;19;20074;-76
2023/01/18 02:34:07;;;;;;;13.75;5.88;;;;;;;;;;6106696;19;20017;-76
2023/01/18 02:36:17;;;;;;;12.55;5.90;;;;;;;;;;6102415;19;20110;-77
2023/01/18 02:38:23;;;;;;;12.60;5.57;;;;;;;;;;6107815;19;20066;-76
2023/01/18 02:40:32;;;;;;;11.23;5.85;;;;;;;;;;6103303;19;20503;-76
2023/01/18 02:47:18;;;;;;;14.75;5.85;;;;;;;;;;6106516;19;20057;-77
2023/01/18 02:49:30;;;;;;;12.30;5.93;;;;;;;;;;6103322;19;20026;-76
2023/01/18 02:51:36;;;;;;;10.82;5.97;;;;;;;;;;6101322;19;20014;-76
2023/01/18 02:53:44;;;;;;;13.35;6.18;;;;;;;;;;6102203;19;20030;-74
2023/01/18 02:55:53;;;;;;;11.43;6.32;;;;;;;;;;6104794;19;20019;-74
2023/01/18 02:58:01;;;;;;;12.55;5.68;;;;;;;;;;6103212;19;20015;-74
2023/01/18 03:00:10;;;;;;;13.80;5.90;;;;;;;;;;6103138;19;20011;-75
2023/01/18 03:02:18;;;;;;;14.27;6.18;;;;;;;;;;6095480;19;20015;-74
2023/01/18 03:04:27;;;;;;;12.30;5.70;;;;;;;;;;6104092;19;20038;-75
2023/01/18 03:06:32;;;;;;;12.50;5.90;;;;;;;;;;6102628;19;20015;-75
2023/01/18 03:08:40;;;;;;;12.80;5.53;;;;;;;;;;6103369;19;20018;-75
2023/01/18 03:10:51;;;;;;;12.70;5.35;;;;;;;;;;6104920;19;20015;-75
2023/01/18 03:13:01;;;;;;;14.95;6.35;;;;;;;;;;6100371;19;20129;-76
2023/01/18 03:15:12;;;;;;;13.88;5.63;;;;;;;;;;6103630;19;20003;-76
2023/01/18 03:17:22;;;;;;;14.25;5.50;;;;;;;;;;6101190;19;20515;-76
2023/01/18 03:22:00;;;;;;;14.07;5.43;;;;;;;;;;6099932;19;20019;-76
2023/01/18 03:24:05;;;;;;;12.00;5.80;;;;;;;;;;6103887;19;20020;-75
2023/01/18 03:26:13;;;;;;;14.90;5.38;;;;;;;;;;6082288;19;20010;-75
2023/01/18 03:35:18;;;;;;;16.17;5.63;;;;;;;;;;6100240;19;20007;-76
2023/01/18 03:37:24;;;;;;;13.18;5.75;;;;;;;;;;6101574;19;20075;-76
2023/01/18 03:39:32;;;;;;;18.38;5.68;;;;;;;;;;6103925;19;20013;-76
2023/01/18 03:41:39;;;;;;;21.70;6.70;;;;;;;;;;6103938;19;20602;-75
2023/01/18 03:43:45;;;;;;;15.95;6.18;;;;;;;;;;6103045;19;20007;-76
2023/01/18 03:45:54;;;;;;;11.13;5.25;;;;;;;;;;6099106;19;20491;-76
2023/01/18 03:48:00;;;;;;;12.50;5.57;;;;;;;;;;6100608;19;20018;-77
2023/01/18 03:50:05;;;;;;;16.92;7.25;;;;;;;;;;6101367;19;20597;-76
2023/01/18 03:52:17;;;;;;;13.25;6.35;;;;;;;;;;6099504;19;20011;-75
2023/01/18 03:54:27;;;;;;;16.05;6.63;;;;;;;;;;6099981;19;20016;-76
2023/01/18 03:56:36;;;;;;;11.02;5.40;;;;;;;;;;6101879;19;20499;-77
2023/01/18 03:58:41;;;;;;;14.75;6.32;;;;;;;;;;6103234;19;20446;-76
2023/01/18 04:00:46;;;;;;;15.52;5.50;;;;;;;;;;6103337;19;20421;-76
2023/01/18 04:02:53;;;;;;;13.45;6.72;;;;;;;;;;6102872;19;20018;-76
2023/01/18 04:05:03;;;;;;;16.83;6.35;;;;;;;;;;6101265;19;20367;-75
2023/01/18 04:07:07;;;;;;;19.60;6.15;;;;;;;;;;6101043;19;20820;-76
2023/01/18 04:09:13;;;;;;;15.68;6.18;;;;;;;;;;6101960;19;20022;-77
2023/01/18 04:11:18;;;;;;;18.38;6.63;;;;;;;;;;6101308;19;20932;-76
2023/01/18 04:13:24;;;;;;;14.77;6.78;;;;;;;;;;6102013;19;20487;-77
2023/01/18 04:15:29;;;;;;;15.55;6.55;;;;;;;;;;6104571;19;20069;-76
2023/01/18 04:17:34;;;;;;;11.00;6.05;;;;;;;;;;6104823;19;20023;-76
2023/01/18 04:19:41;;;;;;;11.68;6.30;;;;;;;;;;6102565;19;20026;-75
2023/01/18 04:21:46;;;;;;;11.07;5.97;;;;;;;;;;6100732;19;20470;-76
2023/01/18 04:23:51;;;;;;;19.02;7.38;;;;;;;;;;6104876;19;20025;-76
2023/01/18 04:25:56;;;;;;;14.27;6.32;;;;;;;;;;6111453;19;20367;-76
2023/01/18 04:28:01;;;;;;;12.98;5.93;;;;;;;;;;6108654;19;20331;-76
2023/01/18 04:30:08;;;;;;;18.85;7.25;;;;;;;;;;6111668;19;20020;-74
2023/01/18 04:32:13;;;;;;;12.32;5.57;;;;;;;;;;6105513;19;20010;-75
2023/01/18 04:34:19;;;;;;;14.82;6.35;;;;;;;;;;6109841;19;20110;-75
2023/01/18 04:36:29;;;;;;;15.45;6.18;;;;;;;;;;6108006;19;20282;-75
2023/01/18 04:38:34;;;;;;;17.02;5.80;;;;;;;;;;6108152;19;20045;-76
2023/01/18 04:40:38;;;;;;;12.18;6.18;;;;;;;;;;6108576;19;20026;-75
2023/01/18 04:42:44;;;;;;;15.43;5.97;;;;;;;;;;6111065;19;20003;-75
2023/01/18 04:44:49;;;;;;;18.38;8.27;;;;;;;;;;6107998;19;20015;-74
2023/01/18 04:46:54;;;;;;;11.13;5.65;;;;;;;;;;6107574;19;20010;-76
2023/01/18 04:48:59;;;;;;;13.52;6.10;;;;;;;;;;6108193;19;20042;-76
2023/01/18 04:51:04;;;;;;;12.63;5.10;;;;;;;;;;6108785;19;20275;-77
2023/01/18 04:53:11;;;;;;;13.65;6.25;;;;;;;;;;6106751;19;20003;-75
2023/01/18 04:55:17;;;;;;;12.70;5.20;;;;;;;;;;6107371;19;20006;-74
2023/01/18 04:57:21;;;;;;;13.25;5.82;;;;;;;;;;6109086;19;20007;-75
2023/01/18 04:59:27;;;;;;;12.73;6.28;;;;;;;;;;6106773;19;20483;-75
2023/01/18 05:01:33;;;;;;;17.83;6.45;;;;;;;;;;6106347;19;20065;-76
2023/01/18 05:03:38;;;;;;;13.90;6.43;;;;;;;;;;6107057;19;20198;-77
2023/01/18 05:05:43;;;;;;;12.20;5.97;;;;;;;;;;6107613;19;20014;-76
2023/01/18 05:07:48;;;;;;;13.70;5.68;;;;;;;;;;6109615;19;20013;-76
2023/01/18 05:09:56;;;;;;;14.35;6.38;;;;;;;;;;6109342;19;20038;-76
2023/01/18 05:12:01;;;;;;;16.05;6.85;;;;;;;;;;6110793;19;20010;-76
2023/01/18 05:14:05;;;;;;;14.63;5.82;;;;;;;;;;6109647;19;20074;-74
2023/01/18 05:16:15;;;;;;;11.40;6.38;;;;;;;;;;6101881;19;20511;-75
2023/01/18 05:18:20;;;;;;;16.92;6.00;;;;;;;;;;6106795;19;20011;-76
2023/01/18 05:20:24;;;;;;;13.95;5.60;;;;;;;;;;6110913;19;20011;-76
2023/01/18 05:22:31;;;;;;;13.07;6.88;;;;;;;;;;6109994;19;20416;-75
2023/01/18 05:24:36;;;;;;;17.35;7.13;;;;;;;;;;6108580;19;20035;-74
2023/01/18 05:26:44;;;;;;;15.18;7.03;;;;;;;;;;6112383;19;20006;-75
2023/01/18 05:28:49;;;;;;;12.18;5.72;;;;;;;;;;6109635;19;20003;-76
2023/01/18 05:30:55;;;;;;;16.75;6.38;;;;;;;;;;6109469;19;20049;-74
2023/01/18 05:33:00;;;;;;;15.15;6.53;;;;;;;;;;6112734;19;20007;-75
2023/01/18 05:35:05;;;;;;;12.02;5.40;;;;;;;;;;6110827;19;20471;-75
2023/01/18 05:37:10;;;;;;;15.32;6.10;;;;;;;;;;6109942;19;20022;-76
2023/01/18 05:39:15;;;;;;;18.23;6.78;;;;;;;;;;6110853;19;20017;-76
2023/01/18 05:41:20;;;;;;;12.63;5.53;;;;;;;;;;6110025;19;20051;-76
2023/01/18 05:43:29;;;;;;;10.02;4.75;;;;;;;;;;6106574;19;20038;-76
2023/01/18 05:45:34;;;;;;;12.52;4.95;;;;;;;;;;6107882;19;20050;-76
2023/01/18 05:47:40;;;;;;;15.90;5.55;;;;;;;;;;6104918;19;20034;-76
2023/01/18 05:49:45;;;;;;;11.15;4.13;;;;;;;;;;6108196;19;20017;-76
2023/01/18 05:51:50;;;;;;;13.55;5.53;;;;;;;;;;6107479;19;20480;-74
2023/01/18 05:53:55;;;;;;;12.50;5.18;;;;;;;;;;6104259;19;20014;-75
2023/01/18 05:56:04;;;;;;;9.48;4.82;;;;;;;;;;6107157;19;20124;-75
2023/01/18 05:58:08;;;;;;;13.88;5.03;;;;;;;;;;6105529;19;20066;-75
2023/01/18 06:00:17;;;;;;;10.40;5.00;;;;;;;;;;6100944;19;20011;-75
2023/01/18 06:02:22;;;;;;;11.43;4.70;;;;;;;;;;6106309;19;20011;-75
2023/01/18 06:04:27;;;;;;;10.05;4.32;;;;;;;;;;6105758;19;20017;-75
2023/01/18 06:06:35;;;;;;;9.25;4.50;;;;;;;;;;6102053;19;20018;-76
2023/01/18 06:08:40;;;;;;;11.43;4.45;;;;;;;;;;6105002;19;20007;-75
2023/01/18 06:10:46;;;;;;;11.80;4.95;;;;;;;;;;6105551;19;20027;-76
2023/01/18 06:12:51;;;;;;;7.25;3.95;;;;;;;;;;6102348;19;20086;-75
2023/01/18 06:14:56;;;;;;;12.70;4.25;;;;;;;;;;6086137;19;20015;-75
2023/01/18 06:17:04;;;;;;;10.05;3.75;;;;;;;;;;6106040;19;20030;-75
2023/01/18 06:19:09;;;;;;;8.65;3.55;;;;;;;;;;6104790;19;20352;-75
2023/01/18 06:21:14;;;;;;;8.05;3.80;;;;;;;;;;6102723;19;20478;-75
2023/01/18 06:23:20;;;;;;;10.88;3.80;;;;;;;;;;6106567;19;20018;-75
2023/01/18 06:25:25;;;;;;;7.57;3.65;;;;;;;;;;6104347;19;20039;-77
2023/01/18 06:27:36;;;;;;;6.82;3.20;;;;;;;;;;6105760;19;20011;-76
2023/01/18 06:29:41;;;;;;;8.07;3.88;;;;;;;;;;6079678;19;20444;-77
2023/01/18 06:31:46;;;;;;;10.70;3.75;;;;;;;;;;6103263;19;20580;-76
2023/01/18 06:33:53;;;;;;;11.88;3.80;;;;;;;;;;6100739;19;20019;-77
2023/01/18 06:36:00;;;;;;;7.45;3.58;;;;;;;;;;6102919;19;20019;-76
2023/01/18 06:38:06;;;;;;;13.18;4.18;;;;;;;;;;6103506;19;20418;-77
2023/01/18 06:40:13;;;;;;;8.27;3.65;;;;;;;;;;6102623;19;20018;-76
2023/01/18 06:42:18;;;;;;;12.02;4.38;;;;;;;;;;6105649;19;20007;-77
2023/01/18 06:44:23;;;;;;;11.73;4.40;;;;;;;;;;6104136;19;20806;-76
2023/01/18 06:46:30;;;;;;;8.52;4.05;;;;;;;;;;6104154;19;20011;-77
2023/01/18 06:48:35;;;;;;;10.90;4.50;;;;;;;;;;6102879;19;20051;-75
2023/01/18 06:50:43;;;;;;;13.65;5.05;;;;;;;;;;6107085;19;20046;-76
2023/01/18 06:52:48;;;;;;;10.60;4.60;;;;;;;;;;6101282;19;20021;-77
2023/01/18 06:54:53;;;;;;;10.93;4.28;;;;;;;;;;6102453;19;20010;-75
2023/01/18 06:56:58;;;;;;;14.02;5.65;;;;;;;;;;6105631;19;20002;-76
2023/01/18 06:59:03;;;;;;;7.70;4.00;;;;;;;;;;6102325;19;20006;-75
2023/01/18 07:01:12;;;;;;;13.73;5.00;;;;;;;;;;6103678;19;20018;-77
2023/01/18 07:03:17;;;;;;;13.00;5.53;;;;;;;;;;6081610;19;20035;-77
2023/01/18 07:05:22;;;;;;;9.27;4.57;;;;;;;;;;6105366;19;20578;-75
2023/01/18 07:07:31;;;;;;;8.10;4.88;;;;;;;;;;6101720;19;20007;-77
2023/01/18 07:09:36;;;;;;;10.15;4.32;;;;;;;;;;6103796;19;20480;-77
2023/01/18 07:11:42;;;;;;;9.52;4.07;;;;;;;;;;6103401;19;20033;-77
2023/01/18 07:13:48;;;;;;;9.40;4.45;;;;;;;;;;6105339;19;20010;-76
2023/01/18 07:15:57;;;;;;;14.30;4.82;;;;;;;;;;6105569;19;20018;-77
2023/01/18 07:18:04;;;;;;;11.57;4.47;;;;;;;;;;6103184;19;20022;-76
2023/01/18 07:20:12;;;;;;;6.85;3.65;;;;;;;;;;6103567;19;20075;-75
2023/01/18 07:22:18;;;;;;;8.77;4.35;;;;;;;;;;6070571;19;20034;-77
2023/01/18 07:24:25;;;;;;;9.50;4.97;;;;;;;;;;6103032;19;20534;-76
2023/01/18 07:26:32;;;;;;;10.07;4.28;;;;;;;;;;6103124;19;20029;-75
2023/01/18 07:28:37;;;;;;;10.13;4.95;;;;;;;;;;6105429;19;20011;-75
2023/01/18 07:30:43;;;;;;;8.93;4.55;;;;;;;;;;6102073;19;20015;-75
2023/01/18 07:32:50;;;;;;;19.00;4.35;;;;;;;;;;6101802;19;20013;-75
2023/01/18 07:34:55;;;;;;;8.85;4.32;;;;;;;;;;6099104;19;20007;-76
2023/01/18 07:37:05;;;;;;;9.93;4.00;;;;;;;;;;6104220;19;20010;-76
2023/01/18 07:39:13;;;;;;;8.85;4.20;;;;;;;;;;6100172;19;20741;-75
2023/01/18 07:41:21;;;;;;;9.00;4.60;;;;;;;;;;6100643;19;20019;-76
2023/01/18 07:43:26;;;;;;;7.00;4.38;;;;;;;;;;6101755;19;20032;-77
2023/01/18 07:45:32;;;;;;;11.95;5.30;;;;;;;;;;6102383;19;20035;-76
2023/01/18 07:47:38;;;;;;;8.35;4.28;;;;;;;;;;6101328;19;20221;-76
2023/01/18 07:49:43;;;;;;;9.82;3.95;;;;;;;;;;6101852;19;20090;-76
2023/01/18 07:51:48;;;;;;;11.43;4.68;;;;;;;;;;6100728;19;20006;-77
2023/01/18 07:53:55;;;;;;;10.63;4.78;;;;;;;;;;6101847;19;20088;-76
2023/01/18 07:56:04;;;;;;;7.50;4.57;;;;;;;;;;6104786;19;20502;-76
2023/01/18 07:58:12;;;;;;;7.82;4.45;;;;;;;;;;6100680;19;20019;-77
2023/01/18 08:00:18;;;;;;;13.48;4.55;;;;;;;;;;6100838;19;20015;-75
2023/01/18 08:02:23;;;;;;;10.88;4.90;;;;;;;;;;6109228;19;20011;-75
2023/01/18 08:04:28;;;;;;;9.75;4.65;;;;;;;;;;6108070;19;20014;-75
2023/01/18 08:06:33;;;;;;;11.18;4.97;;;;;;;;;;6104251;19;20011;-76
2023/01/18 08:08:38;;;;;;;12.45;5.47;;;;;;;;;;6107496;19;20379;-76
2023/01/18 08:10:45;;;;;;;10.98;6.53;;;;;;;;;;6107920;19;20010;-75
2023/01/18 08:12:50;;;;;;;12.07;5.88;;;;;;;;;;6110958;19;20107;-76
2023/01/18 08:14:58;;;;;;;13.15;4.75;;;;;;;;;;6108253;19;20372;-77
2023/01/18 08:17:06;;;;;;;12.15;5.82;;;;;;;;;;6109846;19;20014;-77
2023/01/18 08:19:12;;;;;;;9.90;5.22;;;;;;;;;;6109616;19;20558;-78
2023/01/18 08:21:18;;;;;;;13.48;5.25;;;;;;;;;;6106950;19;20466;-77
2023/01/18 08:23:23;;;;;;;9.77;5.53;;;;;;;;;;6107373;19;20014;-77
2023/01/18 08:25:32;;;;;;;13.05;6.07;;;;;;;;;;6104938;19;20245;-76
2023/01/18 08:27:37;;;;;;;13.18;6.55;;;;;;;;;;6110385;19;20078;-76
2023/01/18 08:29:42;;;;;;;10.93;5.65;;;;;;;;;;6103277;19;20014;-76
2023/01/18 08:31:52;;;;;;;12.85;5.97;;;;;;;;;;6108264;19;20038;-77
2023/01/18 08:33:57;;;;;;;9.98;5.35;;;;;;;;;;6089662;19;20085;-77
2023/01/18 08:36:04;;;;;;;11.73;5.82;;;;;;;;;;6108509;19;20546;-77
2023/01/18 08:38:10;;;;;;;9.90;6.18;;;;;;;;;;6108461;19;20023;-76
2023/01/18 08:40:15;;;;;;;15.02;6.78;;;;;;;;;;6104733;19;20011;-75
2023/01/18 08:42:20;;;;;;;9.88;5.25;;;;;;;;;;6105049;19;20021;-75
2023/01/18 08:44:25;;;;;;;11.00;6.60;;;;;;;;;;6106849;19;20074;-75
2023/01/18 08:46:31;;;;;;;11.00;5.90;;;;;;;;;;6106805;19;20106;-74
2023/01/18 08:48:38;;;;;;;10.82;5.75;;;;;;;;;;6108304;19;20019;-76
2023/01/18 08:50:46;;;;;;;13.50;6.88;;;;;;;;;;6107081;19;20634;-76
2023/01/18 08:52:55;;;;;;;15.32;6.93;;;;;;;;;;6101844;19;20394;-75
2023/01/18 08:55:01;;;;;;;13.27;6.05;;;;;;;;;;6107965;19;20018;-75
2023/01/18 08:57:07;;;;;;;10.55;6.07;;;;;;;;;;6103521;19;20011;-75
2023/01/18 08:59:12;;;;;;;13.60;5.82;;;;;;;;;;6105924;19;20010;-76
2023/01/18 09:01:18;;;;;;;11.85;6.15;;;;;;;;;;6090191;19;20027;-75
2023/01/18 09:03:23;;;;;;;9.38;5.70;;;;;;;;;;6104641;19;20370;-76
2023/01/18 09:05:35;;;;;;;10.55;5.82;;;;;;;;;;6085047;19;20015;-75
2023/01/18 09:07:40;;;;;;;14.50;6.90;;;;;;;;;;6105193;19;20050;-77
2023/01/18 09:09:46;;;;;;;12.13;6.47;;;;;;;;;;6103468;19;20015;-77
2023/01/18 09:11:52;;;;;;;12.10;6.78;;;;;;;;;;6104262;19;20033;-77
2023/01/18 09:13:58;;;;;;;16.05;7.30;;;;;;;;;;6103257;19;20110;-78
2023/01/18 09:16:07;;;;;;;15.40;6.75;;;;;;;;;;6106481;19;20018;-77
2023/01/18 09:18:13;;;;;;;19.08;6.95;;;;;;;;;;6104464;19;20011;-77
2023/01/18 09:20:21;;;;;;;14.80;6.63;;;;;;;;;;6103554;19;20037;-75
2023/01/18 09:22:29;;;;;;;11.90;6.03;;;;;;;;;;6089089;19;20011;-75
2023/01/18 09:24:35;;;;;;;12.98;6.00;;;;;;;;;;6105826;19;20038;-75
2023/01/18 09:26:42;;;;;;;13.38;6.22;;;;;;;;;;6105262;19;20006;-76
2023/01/18 09:28:51;;;;;;;13.48;6.32;;;;;;;;;;6106288;19;20062;-76
2023/01/18 09:30:56;;;;;;;11.95;5.90;;;;;;;;;;6105458;19;20315;-75
2023/01/18 09:33:01;;;;;;;10.18;5.60;;;;;;;;;;6104146;19;20073;-75
2023/01/18 09:35:07;;;;;;;11.00;4.82;;;;;;;;;;6104229;19;20015;-75
2023/01/18 09:37:12;;;;;;;14.45;6.13;;;;;;;;;;6084912;19;20018;-76
2023/01/18 09:39:21;;;;;;;13.13;6.05;;;;;;;;;;6105033;19;20047;-77
2023/01/18 09:41:37;;;;;;;10.02;4.97;;;;;;;;;;6106000;19;20323;-75
2023/01/18 09:43:45;;;;;;;12.07;5.72;;;;;;;;;;6104691;19;20300;-76
2023/01/18 09:45:50;;;;;;;10.55;6.00;;;;;;;;;;6105469;19;20522;-76
2023/01/18 09:48:02;;;;;;;9.93;4.78;;;;;;;;;;6105944;19;20024;-76
2023/01/18 09:50:15;;;;;;;11.50;4.80;;;;;;;;;;6103852;19;20520;-75
2023/01/18 09:52:29;;;;;;;7.88;5.20;;;;;;;;;;6080373;19;20039;-76
2023/01/18 09:54:41;;;;;;;10.75;5.25;;;;;;;;;;6105843;19;20034;-77
2023/01/18 09:56:51;;;;;;;11.70;5.05;;;;;;;;;;6108555;19;20090;-75
2023/01/18 09:59:06;;;;;;;9.95;4.78;;;;;;;;;;6105330;19;20305;-75
2023/01/18 10:01:14;;;;;;;14.25;5.07;;;;;;;;;;6104785;19;20340;-77
2023/01/18 10:03:22;;;;;;;8.93;5.07;;;;;;;;;;6104264;19;20018;-75
2023/01/18 10:05:32;;;;;;;12.20;5.20;;;;;;;;;;6103308;19;20038;-76
2023/01/18 10:07:44;;;;;;;10.10;4.43;;;;;;;;;;6102432;19;20417;-75
2023/01/18 10:09:54;;;;;;;10.20;4.45;;;;;;;;;;6105378;19;20013;-75
2023/01/18 10:12:02;;;;;;;11.02;5.20;;;;;;;;;;6104644;19;20585;-76
2023/01/18 10:14:10;;;;;;;8.85;5.63;;;;;;;;;;6082807;19;20019;-76
2023/01/18 10:16:17;;;;;;;8.70;4.60;;;;;;;;;;6084503;19;20015;-75
2023/01/18 10:18:22;;;;;;;7.65;4.03;;;;;;;;;;6102263;19;20015;-76
2023/01/18 10:20:35;;;;;;;8.52;4.65;;;;;;;;;;6104171;19;20023;-75
2023/01/18 10:22:47;;;;;;;10.25;5.25;;;;;;;;;;6084065;19;20042;-75
2023/01/18 10:24:59;;;;;;;11.30;5.20;;;;;;;;;;6099565;19;20019;-75
2023/01/18 10:27:27;;;;;;;13.20;5.00;;;;;;;;;;6101204;19;20017;-76
2023/01/18 10:29:43;;;;;;;10.68;5.03;;;;;;;;;;6103209;19;20534;-76
2023/01/18 10:31:54;;;;;;;11.77;5.00;;;;;;;;;;6106697;19;20021;-74
2023/01/18 10:34:09;;;;;;;15.63;4.60;;;;;;;;;;6103120;19;20594;-75
2023/01/18 10:36:21;;;;;;;11.68;5.60;;;;;;;;;;6097399;19;20024;-75
2023/01/18 10:38:28;;;;;;;7.85;4.35;;;;;;;;;;6100819;19;20085;-77
2023/01/18 10:40:40;;;;;;;10.65;5.15;;;;;;;;;;6100868;19;20015;-76
2023/01/18 10:42:48;;;;;;;8.20;4.22;;;;;;;;;;6102028;19;20051;-76
2023/01/18 10:44:56;;;;;;;8.45;5.03;;;;;;;;;;6101971;19;20042;-74
2023/01/18 10:47:05;;;;;;;7.80;3.83;;;;;;;;;;6095732;19;20493;-75
2023/01/18 10:49:40;;;;;;;10.32;4.80;;;;;;;;;;6096346;19;20014;-74
2023/01/18 10:51:48;;;;;;;8.77;4.15;;;;;;;;;;6101859;19;20086;-75
2023/01/18 10:53:53;;;;;;;7.65;4.70;;;;;;;;;;6101837;19;20027;-74
2023/01/18 10:56:02;;;;;;;10.90;3.78;;;;;;;;;;6099044;19;20510;-76
2023/01/18 10:58:10;;;;;;;11.35;4.30;;;;;;;;;;6104785;19;20408;-75
2023/01/18 11:00:22;;;;;;;7.60;3.92;;;;;;;;;;6097890;19;20085;-75
2023/01/18 11:02:34;;;;;;;8.70;4.68;;;;;;;;;;6099694;19;20018;-74
2023/01/18 11:04:41;;;;;;;8.63;4.07;;;;;;;;;;6101837;19;20010;-73
2023/01/18 11:06:47;;;;;;;8.30;3.90;;;;;;;;;;6103187;19;20668;-74
2023/01/18 11:08:53;;;;;;;10.50;3.92;;;;;;;;;;6101296;19;20011;-73
2023/01/18 11:11:05;;;;;;;7.85;4.47;;;;;;;;;;6102168;19;20041;-73
2023/01/18 11:13:28;;;;;;;10.38;4.78;;;;;;;;;;6086527;19;20011;-75
2023/01/18 11:15:33;;;;;;;8.68;3.85;;;;;;;;;;6103176;19;20014;-75
2023/01/18 11:17:39;;;;;;;9.25;3.63;;;;;;;;;;6104688;19;20019;-75
2023/01/18 11:19:48;;;;;;;9.57;3.67;;;;;;;;;;6101952;19;20014;-74
2023/01/18 11:21:53;;;;;;;6.55;3.75;;;;;;;;;;6102348;19;20069;-75
2023/01/18 11:23:59;;;;;;;9.13;3.60;;;;;;;;;;6103258;19;20317;-76
2023/01/18 11:26:08;;;;;;;8.20;3.58;;;;;;;;;;6104057;19;20006;-75
2023/01/18 11:28:20;;;;;;;11.63;3.95;;;;;;;;;;6097122;19;20494;-76
2023/01/18 11:30:27;;;;;;;8.73;3.92;;;;;;;;;;6102563;19;20409;-76
2023/01/18 11:32:34;;;;;;;11.13;4.22;;;;;;;;;;6102456;19;20014;-75
2023/01/18 11:34:45;;;;;;;13.52;4.03;;;;;;;;;;6098247;19;20015;-75
2023/01/18 11:36:53;;;;;;;11.35;4.70;;;;;;;;;;6100094;19;20042;-78
2023/01/18 11:39:27;;;;;;;8.15;4.22;;;;;;;;;;6101136;19;20509;-78
2023/01/18 11:41:33;;;;;;;8.07;3.92;;;;;;;;;;6102679;19;20035;-77
2023/01/18 11:43:40;;;;;;;9.45;4.10;;;;;;;;;;6101914;19;20429;-76
2023/01/18 11:45:52;;;;;;;9.18;4.15;;;;;;;;;;6105108;19;20074;-77
2023/01/18 11:48:04;;;;;;;6.47;3.42;;;;;;;;;;6102392;19;20052;-75
2023/01/18 11:50:17;;;;;;;5.90;2.78;;;;;;;;;;6105257;19;20015;-76
2023/01/18 11:52:41;;;;;;;8.55;3.13;;;;;;;;;;6092501;19;20078;-75
2023/01/18 11:54:48;;;;;;;8.02;3.58;;;;;;;;;;6104001;19;20010;-75
2023/01/18 11:56:55;;;;;;;6.93;3.33;;;;;;;;;;6101904;19;20058;-75
2023/01/18 11:59:00;;;;;;;3.70;2.47;;;;;;;;;;6102782;19;20018;-75
2023/01/18 12:01:20;;;;;;;6.00;3.00;;;;;;;;;;6102104;19;20358;-78
2023/01/18 12:03:57;;;;;;;9.13;3.58;;;;;;;;;;6105239;19;20021;-77
2023/01/18 12:06:05;;;;;;;7.68;3.10;;;;;;;;;;6102234;19;20015;-77
2023/01/18 12:08:37;;;;;;;6.93;3.10;;;;;;;;;;6097429;19;20017;-77
2023/01/18 12:10:54;;;;;;;6.95;3.30;;;;;;;;;;6104126;19;20014;-75
2023/01/18 12:13:14;;;;;;;11.18;3.17;;;;;;;;;;6100452;19;20010;-77
2023/01/18 12:15:37;;;;;;;8.57;2.88;;;;;;;;;;6099974;19;20021;-74
2023/01/18 12:17:55;;;;;;;8.48;2.65;;;;;;;;;;6094898;19;20511;-76
2023/01/18 12:20:25;;;;;;;7.32;3.13;;;;;;;;;;6096648;19;20070;-74
2023/01/18 12:22:49;;;;;;;7.03;3.03;;;;;;;;;;6102639;19;20057;-78
2023/01/18 12:25:04;;;;;;;9.32;3.72;;;;;;;;;;6098043;19;20459;-76
2023/01/18 12:27:17;;;;;;;11.27;3.28;;;;;;;;;;6081879;19;20010;-78
2023/01/18 12:29:42;;;;;;;7.55;3.30;;;;;;;;;;6098686;19;20015;-76
2023/01/18 12:31:59;;;;;;;6.90;3.78;;;;;;;;;;6102384;19;20034;-76
2023/01/18 12:34:09;;;;;;;7.60;3.70;;;;;;;;;;6102159;19;20017;-75
2023/01/18 12:36:24;;;;;;;10.70;3.22;;;;;;;;;;6076405;19;20031;-76
2023/01/18 12:38:34;;;;;;;6.70;2.67;;;;;;;;;;6076258;19;20021;-75
2023/01/18 12:40:55;;;;;;;6.07;4.13;;;;;;;;;;6077747;19;20002;-75
2023/01/18 12:43:07;;;;;;;9.30;2.63;;;;;;;;;;6099200;19;20815;-77
2023/01/18 12:45:21;;;;;;;4.43;1.92;;;;;;;;;;6099609;19;20544;-77
2023/01/18 12:47:34;;;;;;;3.92;2.55;;;;;;;;;;6102413;19;20019;-76
2023/01/18 12:49:46;;;;;;;9.60;3.55;;;;;;;;;;6101766;19;20010;-75
2023/01/18 12:51:53;;;;;;;8.13;3.30;;;;;;;;;;6081824;19;20022;-76
2023/01/18 12:54:22;;;;;;;11.80;4.10;;;;;;;;;;6102870;19;20442;-74
2023/01/18 12:56:34;;;;;;;8.30;3.72;;;;;;;;;;6108671;19;20020;-75
2023/01/18 12:58:39;;;;;;;8.60;4.25;;;;;;;;;;6107286;19;20034;-76
2023/01/18 13:00:50;;;;;;;8.48;4.07;;;;;;;;;;6109218;19;20510;-76
2023/01/18 13:02:58;;;;;;;9.57;3.90;;;;;;;;;;6107810;19;20554;-75
2023/01/18 13:05:06;;;;;;;5.43;3.22;;;;;;;;;;6107624;19;20011;-74
2023/01/18 13:07:15;;;;;;;4.47;2.72;;;;;;;;;;6107691;19;20018;-75
2023/01/18 13:09:23;;;;;;;4.40;2.58;;;;;;;;;;6108096;19;20105;-76
2023/01/18 13:11:33;;;;;;;4.47;1.95;;;;;;;;;;6107050;19;20006;-77
2023/01/18 13:13:39;;;;;;;2.78;1.90;;;;;;;;;;6108796;19;20019;-75
2023/01/18 13:15:49;;;;;;;4.43;2.35;;;;;;;;;;6107828;19;20749;-75